Attleboro Falls, Massachusetts
Current Conditions -  °F | °C
As of 7:15 PM on Thursday 27 Nov 2014 (Local Time) from KSFZ Reporting Station
Overcast Overcast  
Wind Chill: 27°   Ceiling: 2300
Heat Index: 32°   Visibility: 10mi
Dew Point: 21°   Wind: 5mph
Humidity: 64%   Direction: 340°NNW
Pressure: 29.97"   Gusts: NA
Location:  41.97°N, 71.32°W
Report Text: KSFZ 280015Z 34004KT 10SM BKN023 BKN036 OVC048 00/M06 A2997 RMK AO1
Loading
Personal Weather Stations






























Interactive Weather Map New forecast layout! Learn more

10-Day Weather Forecast

Advertisements
Track Severe Weather on mobile